createdAt,value
2018-11-14T00:00:26.357Z,13.57
2018-11-14T00:02:55.111Z,10.73
2018-11-14T00:05:23.377Z,12.77
2018-11-14T00:07:51.563Z,11.33
2018-11-14T00:10:20.358Z,10.07
2018-11-14T00:12:48.153Z,13.33
2018-11-14T00:15:17.632Z,10.40
2018-11-14T00:17:46.625Z,13.70
2018-11-14T00:20:15.086Z,11.87
2018-11-14T00:22:44.353Z,18.10
2018-11-14T00:25:12.465Z,11.43
2018-11-14T00:27:40.619Z,8.37
2018-11-14T00:30:14.779Z,11.13
2018-11-14T00:32:43.232Z,10.83
2018-11-14T00:35:11.977Z,9.63
2018-11-14T00:37:40.547Z,9.23
2018-11-14T00:40:10.199Z,11.60
2018-11-14T00:42:38.564Z,13.60
2018-11-14T00:45:08.590Z,10.77
2018-11-14T00:47:36.681Z,8.20
2018-11-14T00:50:05.439Z,11.17
2018-11-14T00:52:33.586Z,11.23
2018-11-14T00:55:01.709Z,13.60
2018-11-14T00:57:29.837Z,13.30
2018-11-14T00:59:58.093Z,14.77
2018-11-14T01:02:26.233Z,14.87
2018-11-14T01:04:54.545Z,8.23
2018-11-14T01:07:22.681Z,14.77
2018-11-14T01:09:50.805Z,11.10
2018-11-14T01:12:18.939Z,10.03
2018-11-14T01:14:47.057Z,10.50
2018-11-14T01:17:15.240Z,14.60
2018-11-14T01:19:43.369Z,10.93
2018-11-14T01:22:11.475Z,13.00
2018-11-14T01:24:39.676Z,19.57
2018-11-14T01:27:07.988Z,20.80
2018-11-14T01:29:36.109Z,11.83
2018-11-14T01:32:04.355Z,13.23
2018-11-14T01:34:32.488Z,18.30
2018-11-14T01:37:00.768Z,15.40
2018-11-14T01:39:28.982Z,18.13
2018-11-14T01:41:57.143Z,16.80
2018-11-14T01:44:25.246Z,14.57
2018-11-14T01:46:53.364Z,17.37
2018-11-14T01:49:21.596Z,14.27
2018-11-14T01:51:49.910Z,12.00
2018-11-14T01:54:18.058Z,21.33
2018-11-14T01:56:46.238Z,15.27
2018-11-14T01:59:14.538Z,19.43
2018-11-14T02:01:42.645Z,15.80
2018-11-14T02:04:10.789Z,16.10
2018-11-14T02:06:39.074Z,18.87
2018-11-14T02:09:08.428Z,15.23
2018-11-14T02:11:36.616Z,13.93
2018-11-14T02:14:05.070Z,13.63
2018-11-14T02:16:33.201Z,18.33
2018-11-14T02:19:01.326Z,17.47
2018-11-14T02:21:29.546Z,18.07
2018-11-14T02:23:57.705Z,20.10
2018-11-14T02:26:25.830Z,14.43
2018-11-14T02:28:54.036Z,17.00
2018-11-14T02:31:22.379Z,16.40
2018-11-14T02:33:50.560Z,16.87
2018-11-14T02:36:18.874Z,13.53
2018-11-14T02:38:47.051Z,17.67
2018-11-14T02:41:15.212Z,18.13
2018-11-14T02:43:43.318Z,23.97
2018-11-14T02:46:11.579Z,16.73
2018-11-14T02:48:39.742Z,18.43
2018-11-14T02:51:19.150Z,22.13
2018-11-14T02:53:47.494Z,18.50
2018-11-14T02:56:15.689Z,17.63
2018-11-14T02:58:43.782Z,20.27
2018-11-14T03:01:11.892Z,18.50
2018-11-14T03:03:40.005Z,21.43
2018-11-14T03:06:08.317Z,18.77
2018-11-14T03:08:36.552Z,21.07
2018-11-14T03:11:04.848Z,17.57
2018-11-14T03:13:32.946Z,23.57
2018-11-14T03:16:01.076Z,21.20
2018-11-14T03:18:29.183Z,20.77
2018-11-14T03:20:57.306Z,14.70
2018-11-14T03:23:25.453Z,16.77
2018-11-14T03:25:53.599Z,20.40
2018-11-14T03:28:21.682Z,20.37
2018-11-14T03:30:49.808Z,20.63
2018-11-14T03:33:17.915Z,23.83
2018-11-14T03:35:51.540Z,19.20
2018-11-14T03:38:19.722Z,20.07
2018-11-14T03:40:47.902Z,21.50
2018-11-14T03:43:16.020Z,23.73
2018-11-14T03:45:44.216Z,21.93
2018-11-14T03:48:12.392Z,19.20
2018-11-14T03:50:40.507Z,18.80
2018-11-14T03:53:08.595Z,14.97
2018-11-14T03:55:36.756Z,20.23
2018-11-14T03:58:05.237Z,16.90
2018-11-14T04:00:33.277Z,29.33
2018-11-14T04:03:01.430Z,20.73
2018-11-14T04:05:29.662Z,20.83
2018-11-14T04:07:57.729Z,24.00
2018-11-14T04:10:25.911Z,18.93
2018-11-14T04:12:54.202Z,23.33
2018-11-14T04:15:22.344Z,22.53
2018-11-14T04:17:50.488Z,21.73
2018-11-14T04:20:18.618Z,25.00
2018-11-14T04:22:47.252Z,22.67
2018-11-14T04:25:17.663Z,26.77
2018-11-14T04:27:46.570Z,22.63
2018-11-14T04:30:15.773Z,17.90
2018-11-14T04:32:44.386Z,27.97
2018-11-14T04:35:13.596Z,22.90
2018-11-14T04:37:41.786Z,25.40
2018-11-14T04:40:12.192Z,21.37
2018-11-14T04:42:40.445Z,24.07
2018-11-14T04:45:10.572Z,22.17
2018-11-14T04:47:38.749Z,24.03
2018-11-14T04:50:09.253Z,27.13
2018-11-14T04:52:37.703Z,25.57
2018-11-14T04:55:07.237Z,25.63
2018-11-14T04:57:35.340Z,23.20
2018-11-14T05:00:03.505Z,25.47
2018-11-14T05:02:31.805Z,21.67
2018-11-14T05:04:59.839Z,22.50
2018-11-14T05:07:28.048Z,28.97
2018-11-14T05:09:56.321Z,21.87
2018-11-14T05:12:24.455Z,22.23
2018-11-14T05:14:52.596Z,22.70
2018-11-14T05:17:20.712Z,20.00
2018-11-14T05:19:48.872Z,24.63
2018-11-14T05:22:17.010Z,21.97
2018-11-14T05:24:45.268Z,21.97
2018-11-14T05:27:13.384Z,24.67
2018-11-14T05:29:41.514Z,28.43
2018-11-14T05:32:09.626Z,22.50
2018-11-14T05:34:37.828Z,24.53
2018-11-14T05:37:05.992Z,21.73
2018-11-14T05:39:34.399Z,21.03
2018-11-14T05:42:02.466Z,25.23
2018-11-14T05:44:30.605Z,23.90
2018-11-14T05:46:58.740Z,19.60
2018-11-14T05:49:26.924Z,22.60
2018-11-14T05:51:55.165Z,22.83
2018-11-14T05:54:23.312Z,23.10
2018-11-14T05:56:51.445Z,23.83
2018-11-14T05:59:19.602Z,27.13
2018-11-14T06:01:47.741Z,33.27
2018-11-14T06:04:15.960Z,23.10
2018-11-14T06:06:44.119Z,28.10
2018-11-14T06:09:13.814Z,33.03
2018-11-14T06:11:42.064Z,29.97
2018-11-14T06:14:10.214Z,23.57
2018-11-14T06:16:38.391Z,28.97
2018-11-14T06:19:06.566Z,33.90
2018-11-14T06:21:34.884Z,28.53
2018-11-14T06:24:03.060Z,30.27
2018-11-14T06:26:31.260Z,27.13
2018-11-14T06:28:59.387Z,37.33
2018-11-14T06:31:27.556Z,30.93
2018-11-14T06:33:55.738Z,29.47
2018-11-14T06:36:23.906Z,30.70
2018-11-14T06:38:52.094Z,35.47
2018-11-14T06:41:20.258Z,35.17
2018-11-14T06:43:48.426Z,26.53
2018-11-14T06:46:16.634Z,27.77
2018-11-14T06:48:44.902Z,29.40
2018-11-14T06:51:13.120Z,30.47
2018-11-14T06:53:41.262Z,33.73
2018-11-14T06:56:09.377Z,26.90
2018-11-14T06:58:37.510Z,31.63
2018-11-14T07:01:05.768Z,23.90
2018-11-14T07:03:33.950Z,27.53
2018-11-14T07:06:02.296Z,32.63
2018-11-14T07:08:30.261Z,27.93
2018-11-14T07:10:58.512Z,29.87
2018-11-14T07:13:26.590Z,25.30
2018-11-14T07:15:54.743Z,26.93
2018-11-14T07:18:22.869Z,29.47
2018-11-14T07:20:51.027Z,29.30
2018-11-14T07:23:19.214Z,30.30
2018-11-14T07:25:47.982Z,23.60
2018-11-14T07:28:16.177Z,28.13
2018-11-14T07:30:44.399Z,25.53
2018-11-14T07:33:12.741Z,29.37
2018-11-14T07:35:43.857Z,30.17
2018-11-14T07:38:21.893Z,29.83
2018-11-14T07:40:50.071Z,33.93
2018-11-14T07:43:18.301Z,33.33
2018-11-14T07:45:46.456Z,32.90
2018-11-14T07:48:14.573Z,36.13
2018-11-14T07:50:42.689Z,44.23
2018-11-14T07:53:10.952Z,33.77
2018-11-14T07:55:39.156Z,29.23
2018-11-14T07:58:07.274Z,29.53
2018-11-14T08:00:35.400Z,30.83
2018-11-14T08:03:03.599Z,24.23
2018-11-14T08:05:31.766Z,33.10
2018-11-14T08:07:59.965Z,34.63
2018-11-14T08:10:28.033Z,25.67
2018-11-14T08:13:02.889Z,29.77
2018-11-14T08:15:31.057Z,28.10
2018-11-14T08:17:59.204Z,24.50
2018-11-14T08:20:27.320Z,27.13
2018-11-14T08:22:55.766Z,25.33
2018-11-14T08:25:24.376Z,30.83
2018-11-14T08:27:52.514Z,26.23
2018-11-14T08:30:20.671Z,26.73
2018-11-14T08:32:48.904Z,28.40
2018-11-14T08:35:17.067Z,29.53
2018-11-14T08:37:45.258Z,28.07
2018-11-14T08:40:13.408Z,31.67
2018-11-14T08:42:42.066Z,24.57
2018-11-14T08:45:11.372Z,37.50
2018-11-14T08:47:40.261Z,32.77
2018-11-14T08:50:14.203Z,32.60
2018-11-14T08:52:49.250Z,34.87
2018-11-14T08:55:17.477Z,29.03
2018-11-14T08:57:46.559Z,29.43
2018-11-14T09:00:18.084Z,24.57
2018-11-14T09:02:46.713Z,27.57
2018-11-14T09:05:14.877Z,25.57
2018-11-14T09:07:43.070Z,29.80
2018-11-14T09:10:14.249Z,25.17
2018-11-14T09:12:42.731Z,29.87
2018-11-14T09:15:13.041Z,29.23
2018-11-14T09:17:41.140Z,32.47
2018-11-14T09:20:12.692Z,21.77
2018-11-14T09:22:41.017Z,21.00
2018-11-14T09:25:12.991Z,21.80
2018-11-14T09:27:41.840Z,22.80
2018-11-14T09:30:12.260Z,23.97
2018-11-14T09:32:40.434Z,28.97
2018-11-14T09:35:09.905Z,24.23
2018-11-14T09:37:38.292Z,22.50
2018-11-14T09:40:07.667Z,32.97
2018-11-14T09:42:36.061Z,26.63
2018-11-14T09:45:04.496Z,26.77
2018-11-14T09:47:32.635Z,25.70
2018-11-14T09:50:00.762Z,29.10
2018-11-14T09:52:28.889Z,25.30
2018-11-14T09:54:57.399Z,22.67
2018-11-14T09:57:25.550Z,32.93
2018-11-14T09:59:53.672Z,21.43
2018-11-14T10:02:21.861Z,22.23
2018-11-14T10:04:50.100Z,28.13
2018-11-14T10:07:18.288Z,25.83
2018-11-14T10:09:46.440Z,26.77
2018-11-14T10:12:14.574Z,27.17
2018-11-14T10:14:42.767Z,32.13
2018-11-14T10:17:10.983Z,27.43
2018-11-14T10:19:39.259Z,24.80
2018-11-14T10:22:07.452Z,21.17
2018-11-14T10:24:35.654Z,26.50
2018-11-14T10:27:03.853Z,21.87
2018-11-14T10:29:38.941Z,22.07
2018-11-14T10:32:07.082Z,20.50
2018-11-14T10:34:35.257Z,22.30
2018-11-14T10:37:03.369Z,30.87
2018-11-14T10:39:31.504Z,22.30
2018-11-14T10:41:59.695Z,21.83
2018-11-14T10:44:27.902Z,20.03
2018-11-14T10:46:56.076Z,20.10
2018-11-14T10:49:24.289Z,21.87
2018-11-14T10:54:27.014Z,22.77
2018-11-14T10:56:55.187Z,27.57
2018-11-14T10:59:23.358Z,28.27
2018-11-14T11:01:57.077Z,25.57
2018-11-14T11:04:30.540Z,23.33
2018-11-14T11:07:04.045Z,27.77
2018-11-14T11:10:41.079Z,24.87
2018-11-14T11:13:15.371Z,23.77
2018-11-14T11:15:49.298Z,24.07
2018-11-14T11:18:18.496Z,21.33
2018-11-14T11:20:46.854Z,24.67
2018-11-14T11:23:15.077Z,24.03
2018-11-14T11:25:43.619Z,25.53
2018-11-14T11:28:11.793Z,20.73
2018-11-14T11:30:40.121Z,19.63
2018-11-14T11:33:08.293Z,21.33
2018-11-14T11:35:36.741Z,22.63
2018-11-14T11:38:05.349Z,17.23
2018-11-14T11:40:33.912Z,17.13
2018-11-14T11:43:02.825Z,23.40
2018-11-14T11:45:31.208Z,22.90
2018-11-14T11:47:59.440Z,24.07
2018-11-14T11:50:27.861Z,22.23
2018-11-14T11:52:56.090Z,19.70
2018-11-14T11:55:24.263Z,23.57
2018-11-14T11:57:52.468Z,16.47
2018-11-14T12:00:21.618Z,21.27
2018-11-14T12:02:49.718Z,22.47
2018-11-14T12:05:17.970Z,21.70
2018-11-14T12:07:46.131Z,27.23
2018-11-14T12:10:15.180Z,18.20
2018-11-14T12:12:44.209Z,20.43
2018-11-14T12:15:13.253Z,26.90
2018-11-14T12:17:42.096Z,21.60
2018-11-14T12:20:12.083Z,22.83
2018-11-14T12:22:41.079Z,19.97
2018-11-14T12:25:10.954Z,17.23
2018-11-14T12:27:39.196Z,17.90
2018-11-14T12:30:11.291Z,22.77
2018-11-14T12:32:39.511Z,20.80
2018-11-14T12:35:08.905Z,25.47
2018-11-14T12:37:37.014Z,22.60
2018-11-14T12:40:05.776Z,17.00
2018-11-14T12:42:34.065Z,23.43
2018-11-14T12:45:02.266Z,27.87
2018-11-14T12:47:30.464Z,20.90
2018-11-14T12:49:58.669Z,24.60
2018-11-14T12:52:26.961Z,20.77
2018-11-14T12:55:01.858Z,26.13
2018-11-14T12:57:30.115Z,18.47
2018-11-14T12:59:58.291Z,25.30
2018-11-14T13:02:26.458Z,20.40
2018-11-14T13:04:54.645Z,24.27
2018-11-14T13:07:22.864Z,27.13
2018-11-14T13:09:51.097Z,18.03
2018-11-14T13:12:19.317Z,23.33
2018-11-14T13:14:47.496Z,26.77
2018-11-14T13:17:15.715Z,18.90
2018-11-14T13:19:43.868Z,26.63
2018-11-14T13:22:11.998Z,15.50
2018-11-14T13:24:40.180Z,15.77
2018-11-14T13:27:08.282Z,19.97
2018-11-14T13:29:36.440Z,15.83
2018-11-14T13:32:04.672Z,17.87
2018-11-14T13:34:32.846Z,15.97
2018-11-14T13:37:01.213Z,25.13
2018-11-14T13:39:29.382Z,26.47
2018-11-14T13:41:57.532Z,27.27
2018-11-14T13:44:25.664Z,29.97
2018-11-14T13:46:54.110Z,21.53
2018-11-14T13:49:22.370Z,26.37
2018-11-14T13:51:50.613Z,21.70
2018-11-14T13:54:18.779Z,19.53
2018-11-14T13:56:47.099Z,21.53
2018-11-14T13:59:15.274Z,17.83
2018-11-14T14:01:43.562Z,22.27
2018-11-14T14:04:11.821Z,18.80
2018-11-14T14:06:40.062Z,19.67
2018-11-14T14:09:10.092Z,27.13
2018-11-14T14:11:38.198Z,20.90
2018-11-14T14:14:13.793Z,20.23
2018-11-14T14:16:43.148Z,19.47
2018-11-14T14:19:11.343Z,19.43
2018-11-14T14:21:40.097Z,28.50
2018-11-14T14:24:08.525Z,30.80
2018-11-14T14:26:37.623Z,25.30
2018-11-14T14:29:06.052Z,29.93
2018-11-14T14:31:34.371Z,26.97
2018-11-14T14:34:02.558Z,28.77
2018-11-14T14:36:30.738Z,40.23
2018-11-14T14:38:58.951Z,30.90
2018-11-14T14:41:27.145Z,37.33
2018-11-14T14:43:55.425Z,27.47
2018-11-14T14:46:30.054Z,33.43
2018-11-14T14:48:58.195Z,28.87
2018-11-14T14:51:26.415Z,32.07
2018-11-14T15:04:12.336Z,43.47
2018-11-14T15:14:02.059Z,37.60
2018-11-14T15:16:30.384Z,42.83
2018-11-14T15:18:58.582Z,51.27
2018-11-14T15:21:26.796Z,38.37
2018-11-14T15:23:55.044Z,43.30
2018-11-14T15:26:23.240Z,39.17
2018-11-14T15:28:51.404Z,48.97
2018-11-14T15:31:19.602Z,44.70
2018-11-14T15:33:47.986Z,38.63
2018-11-14T15:36:16.146Z,42.47
2018-11-14T15:38:44.351Z,47.40
2018-11-14T15:41:12.500Z,51.50
2018-11-14T15:43:40.679Z,50.50
2018-11-14T15:46:08.808Z,45.47
2018-11-14T15:48:37.006Z,51.73
2018-11-14T15:51:05.576Z,37.90
2018-11-14T15:53:33.701Z,43.00
2018-11-14T15:56:01.863Z,44.77
2018-11-14T15:58:30.006Z,65.03
2018-11-14T16:00:58.186Z,56.13
2018-11-14T16:03:26.376Z,48.27
2018-11-14T16:05:54.543Z,50.80
2018-11-14T16:08:22.712Z,57.17
2018-11-14T16:10:50.870Z,37.23
2018-11-14T16:13:19.088Z,37.80
2018-11-14T16:15:47.320Z,45.40
2018-11-14T16:18:16.449Z,48.30
2018-11-14T16:20:44.644Z,45.33
2018-11-14T16:23:12.781Z,46.27
2018-11-14T16:25:40.923Z,41.63
2018-11-14T16:28:09.330Z,52.33
2018-11-14T16:30:38.165Z,36.60
2018-11-14T16:33:07.478Z,54.13
2018-11-14T16:35:35.682Z,43.47
2018-11-14T16:38:03.961Z,54.13
2018-11-14T16:40:33.472Z,55.60
2018-11-14T16:43:03.035Z,42.23
2018-11-14T16:45:31.174Z,40.60
2018-11-14T16:47:59.398Z,42.50
2018-11-14T16:50:27.537Z,73.50
2018-11-14T16:52:55.681Z,42.20
2018-11-14T16:55:24.337Z,52.47
2018-11-14T16:57:53.581Z,45.63
2018-11-14T17:00:29.537Z,41.67
2018-11-14T17:02:57.825Z,44.67
2018-11-14T17:05:26.900Z,42.03
2018-11-14T17:07:55.053Z,41.43
2018-11-14T17:10:23.548Z,44.40
2018-11-14T17:12:54.231Z,39.60
2018-11-14T17:15:23.503Z,39.67
2018-11-14T17:17:51.898Z,39.80
2018-11-14T17:20:20.894Z,43.80
2018-11-14T17:22:49.701Z,49.53
2018-11-14T17:25:18.606Z,52.33
2018-11-14T17:27:47.048Z,47.03
2018-11-14T17:30:16.675Z,39.83
2018-11-14T17:32:45.100Z,44.27
2018-11-14T17:35:14.182Z,46.20
2018-11-14T17:37:43.258Z,51.33
2018-11-14T17:40:14.822Z,52.63
2018-11-14T17:42:43.814Z,52.37
2018-11-14T17:45:14.141Z,47.67
2018-11-14T17:47:42.408Z,44.50
2018-11-14T17:50:13.157Z,54.43
2018-11-14T17:52:41.332Z,59.53
2018-11-14T17:55:11.165Z,50.93
2018-11-14T17:57:39.394Z,54.27
2018-11-14T18:00:09.972Z,44.90
2018-11-14T18:02:38.565Z,44.70
2018-11-14T18:05:08.588Z,41.33
2018-11-14T18:07:36.887Z,49.03
2018-11-14T18:10:05.789Z,49.57
2018-11-14T18:12:33.948Z,49.37
2018-11-14T18:15:02.176Z,53.23
2018-11-14T18:17:30.504Z,60.20
2018-11-14T18:19:58.707Z,58.17
2018-11-14T18:22:26.935Z,57.80
2018-11-14T18:24:55.093Z,52.23
2018-11-14T18:27:23.403Z,41.50
2018-11-14T18:29:51.994Z,45.63
2018-11-14T18:32:20.237Z,50.30
2018-11-14T18:34:48.420Z,45.93
2018-11-14T18:37:16.630Z,44.23
2018-11-14T18:39:45.019Z,53.43
2018-11-14T18:42:13.055Z,47.47
2018-11-14T18:44:41.346Z,43.23
2018-11-14T18:47:09.756Z,52.20
2018-11-14T18:49:38.032Z,51.23
2018-11-14T18:52:06.352Z,45.30
2018-11-14T18:54:34.708Z,44.93
2018-11-14T18:57:02.988Z,40.13
2018-11-14T18:59:31.554Z,46.00
2018-11-14T19:01:59.794Z,50.83
2018-11-14T19:04:31.862Z,44.53
2018-11-14T19:07:00.085Z,54.67
2018-11-14T19:09:28.338Z,45.10
2018-11-14T19:11:56.558Z,57.80
2018-11-14T19:14:24.851Z,50.57
2018-11-14T19:16:53.119Z,49.53
2018-11-14T19:19:21.416Z,48.83
2018-11-14T19:21:49.709Z,46.13
2018-11-14T19:24:18.062Z,58.70
2018-11-14T19:26:46.573Z,48.83
2018-11-14T19:29:14.782Z,40.50
2018-11-14T19:31:42.978Z,41.70
2018-11-14T19:34:11.254Z,61.10
2018-11-14T19:36:39.590Z,49.43
2018-11-14T19:39:09.951Z,64.67
2018-11-14T19:41:38.173Z,46.13
2018-11-14T19:44:06.638Z,56.30
2018-11-14T19:46:34.989Z,57.27
2018-11-14T19:49:03.303Z,54.60
2018-11-14T19:51:31.708Z,49.73
2018-11-14T19:54:00.151Z,44.23
2018-11-14T19:56:28.454Z,46.03
2018-11-14T19:58:56.746Z,53.20
2018-11-14T20:01:24.973Z,50.40
2018-11-14T20:03:53.269Z,48.13
2018-11-14T20:06:21.490Z,58.57
2018-11-14T20:08:49.732Z,44.13
2018-11-14T20:11:17.984Z,48.53
2018-11-14T20:13:46.307Z,48.30
2018-11-14T20:16:14.571Z,45.17
2018-11-14T20:18:42.872Z,43.93
2018-11-14T20:21:11.186Z,56.27
2018-11-14T20:23:39.587Z,49.10
2018-11-14T20:26:07.885Z,53.63
2018-11-14T20:28:36.148Z,49.60
2018-11-14T20:31:04.525Z,51.67
2018-11-14T20:33:32.761Z,45.97
2018-11-14T20:36:01.076Z,44.57
2018-11-14T20:38:29.410Z,46.63
2018-11-14T20:40:57.923Z,35.77
2018-11-14T20:43:26.759Z,84.53
2018-11-14T20:45:55.006Z,49.40
2018-11-14T20:48:23.287Z,44.00
2018-11-14T20:50:51.575Z,40.47
2018-11-14T20:53:19.865Z,45.23
2018-11-14T20:55:48.227Z,49.00
2018-11-14T20:58:16.529Z,49.17
2018-11-14T21:00:44.884Z,50.37
2018-11-14T21:03:14.466Z,47.17
2018-11-14T21:05:42.857Z,44.63
2018-11-14T21:08:11.151Z,43.70
2018-11-14T21:10:40.118Z,41.30
2018-11-14T21:13:08.604Z,48.60
2018-11-14T21:15:39.171Z,47.70
2018-11-14T21:18:07.637Z,34.30
2018-11-14T21:20:36.035Z,36.83
2018-11-14T21:23:04.848Z,40.27
2018-11-14T21:25:33.063Z,43.37
2018-11-14T21:28:01.345Z,38.90
2018-11-14T21:30:30.374Z,42.13
2018-11-14T21:32:58.723Z,42.57
2018-11-14T21:35:29.731Z,38.87
2018-11-14T21:38:00.109Z,35.73
2018-11-14T21:40:28.540Z,40.57
2018-11-14T21:42:56.801Z,37.17
2018-11-14T21:45:26.459Z,50.80
2018-11-14T21:47:59.895Z,45.27
2018-11-14T21:50:28.887Z,49.13
2018-11-14T21:52:57.137Z,45.20
2018-11-14T21:55:26.210Z,42.63
2018-11-14T21:57:54.401Z,37.97
2018-11-14T22:00:29.659Z,37.67
2018-11-14T22:02:57.917Z,37.23
2018-11-14T22:05:26.102Z,38.10
2018-11-14T22:07:54.291Z,33.77
2018-11-14T22:10:23.530Z,29.87
2018-11-14T22:12:52.137Z,38.97
2018-11-14T22:15:21.645Z,50.13
2018-11-14T22:17:50.106Z,36.53
2018-11-14T22:20:19.426Z,35.47
2018-11-14T22:22:47.988Z,33.87
2018-11-14T22:25:17.494Z,28.80
2018-11-14T22:27:45.727Z,32.03
2018-11-14T22:30:16.341Z,33.10
2018-11-14T22:32:44.567Z,34.63
2018-11-14T22:35:14.288Z,29.00
2018-11-14T22:37:42.616Z,33.30
2018-11-14T22:40:13.627Z,47.07
2018-11-14T22:42:41.969Z,45.97
2018-11-14T22:45:12.135Z,50.13
2018-11-14T22:47:41.058Z,47.10
2018-11-14T22:50:10.552Z,44.03
2018-11-14T22:52:39.338Z,45.83
2018-11-14T22:55:08.342Z,36.87
2018-11-14T22:57:36.480Z,42.33
2018-11-14T23:00:08.812Z,44.17
2018-11-14T23:02:37.340Z,41.77
2018-11-14T23:05:05.599Z,44.20
2018-11-14T23:07:33.725Z,39.20
2018-11-14T23:10:01.971Z,38.90
2018-11-14T23:12:30.080Z,41.10
2018-11-14T23:14:58.211Z,41.93
2018-11-14T23:17:26.427Z,37.63
2018-11-14T23:19:54.563Z,38.10
2018-11-14T23:22:22.694Z,39.27
2018-11-14T23:24:50.842Z,42.90
2018-11-14T23:27:18.937Z,38.83
2018-11-14T23:29:47.054Z,36.77
2018-11-14T23:32:15.263Z,36.20
2018-11-14T23:34:48.821Z,36.20
2018-11-14T23:37:17.078Z,30.90
2018-11-14T23:39:45.208Z,39.10
2018-11-14T23:42:13.330Z,32.60
2018-11-14T23:44:41.559Z,29.60
2018-11-14T23:47:09.670Z,33.43
2018-11-14T23:49:37.781Z,27.70
2018-11-14T23:52:05.934Z,32.70
2018-11-14T23:54:34.124Z,29.57
2018-11-14T23:57:02.378Z,33.80
2018-11-14T23:59:30.560Z,24.87
